createdAt,value
2023-01-13T00:00:38.311Z,9.26
2023-01-13T00:03:06.413Z,9.33
2023-01-13T00:05:34.495Z,9.29
2023-01-13T00:08:04.888Z,9.38
2023-01-13T00:10:33.114Z,9.22
2023-01-13T00:13:03.125Z,9.33
2023-01-13T00:15:31.140Z,9.34
2023-01-13T00:17:59.147Z,9.34
2023-01-13T00:20:29.493Z,9.44
2023-01-13T00:22:58.845Z,9.51
2023-01-13T00:25:26.861Z,9.49
2023-01-13T00:27:55.325Z,9.41
2023-01-13T00:30:24.731Z,9.45
2023-01-13T00:32:52.703Z,9.49
2023-01-13T00:35:20.703Z,9.49
2023-01-13T00:37:48.673Z,9.41
2023-01-13T00:40:16.692Z,9.46
2023-01-13T00:42:58.549Z,9.49
2023-01-13T00:45:27.967Z,9.41
2023-01-13T00:47:55.962Z,9.37
2023-01-13T00:50:23.989Z,9.33
2023-01-13T00:52:51.956Z,9.33
2023-01-13T00:55:19.918Z,9.38
2023-01-13T00:57:47.855Z,9.42
2023-01-13T01:00:16.335Z,9.47
2023-01-13T01:02:45.838Z,9.37
2023-01-13T01:05:13.970Z,9.38
2023-01-13T01:07:42.094Z,9.44
2023-01-13T01:10:11.452Z,9.41
2023-01-13T01:12:39.493Z,9.35
2023-01-13T01:15:10.036Z,9.40
2023-01-13T01:17:38.303Z,9.31
2023-01-13T01:20:09.033Z,9.17
2023-01-13T01:22:36.954Z,9.09
2023-01-13T01:25:05.460Z,9.12
2023-01-13T01:27:33.465Z,9.06
2023-01-13T01:30:01.538Z,9.03
2023-01-13T01:32:29.634Z,9.07
2023-01-13T01:34:57.638Z,9.03
2023-01-13T01:37:26.987Z,9.00
2023-01-13T01:39:55.073Z,9.02
2023-01-13T01:42:41.801Z,8.98
2023-01-13T01:45:18.848Z,8.85
2023-01-13T01:47:50.163Z,8.95
2023-01-13T01:50:19.389Z,8.97
2023-01-13T01:52:54.390Z,8.94
2023-01-13T01:55:24.975Z,8.91
2023-01-13T01:57:57.308Z,8.80
2023-01-13T02:00:27.599Z,8.98
2023-01-13T02:02:55.935Z,9.03
2023-01-13T02:05:24.313Z,9.04
2023-01-13T02:07:57.796Z,9.11
2023-01-13T02:10:27.709Z,9.11
2023-01-13T02:12:58.043Z,9.15
2023-01-13T02:15:33.086Z,9.11
2023-01-13T02:18:32.701Z,9.14
2023-01-13T02:21:29.455Z,9.03
2023-01-13T02:24:47.457Z,8.96
2023-01-13T02:29:02.405Z,-143.13
2023-01-13T02:32:33.928Z,-143.13
2023-01-13T02:36:07.389Z,-143.13
2023-01-13T02:38:38.239Z,8.70
2023-01-13T02:41:29.880Z,8.63
2023-01-13T02:44:08.071Z,8.46
2023-01-13T02:46:44.981Z,8.76
2023-01-13T02:49:18.417Z,8.60
2023-01-13T02:52:47.625Z,-143.13
2023-01-13T02:55:21.895Z,8.60
2023-01-13T02:57:51.733Z,8.59
2023-01-13T03:00:21.364Z,8.48
2023-01-13T03:02:50.803Z,8.33
2023-01-13T03:05:18.878Z,8.39
2023-01-13T03:07:59.332Z,8.29
2023-01-13T03:10:47.469Z,8.48
2023-01-13T03:13:31.889Z,8.54
2023-01-13T03:16:11.969Z,8.36
2023-01-13T03:18:48.650Z,8.35
2023-01-13T03:21:22.562Z,8.19
2023-01-13T03:23:53.703Z,8.36
2023-01-13T03:26:27.784Z,8.43
2023-01-13T03:29:02.000Z,8.35
2023-01-13T03:31:35.613Z,8.30
2023-01-13T03:34:08.346Z,8.25
2023-01-13T03:36:40.635Z,8.45
2023-01-13T03:39:13.208Z,8.28
2023-01-13T03:41:47.005Z,8.37
2023-01-13T03:44:24.523Z,8.19
2023-01-13T03:47:02.105Z,7.95
2023-01-13T03:49:38.595Z,8.04
2023-01-13T03:52:10.923Z,7.99
2023-01-13T03:54:45.391Z,7.98
2023-01-13T03:57:16.505Z,8.10
2023-01-13T03:59:49.960Z,8.06
2023-01-13T04:02:24.968Z,7.79
2023-01-13T04:04:59.506Z,7.81
2023-01-13T04:07:38.245Z,7.87
2023-01-13T04:10:08.726Z,7.50
2023-01-13T04:12:59.160Z,7.71
2023-01-13T04:15:29.627Z,7.46
2023-01-13T04:18:04.194Z,7.51
2023-01-13T04:20:33.513Z,7.49
2023-01-13T04:23:01.450Z,7.03
2023-01-13T04:25:29.345Z,7.53
2023-01-13T04:27:57.321Z,7.33
2023-01-13T04:30:25.288Z,7.29
2023-01-13T04:32:53.239Z,7.35
2023-01-13T04:35:21.171Z,7.34
2023-01-13T04:37:50.431Z,7.16
2023-01-13T04:40:18.552Z,7.30
2023-01-13T04:42:47.303Z,7.43
2023-01-13T04:45:15.752Z,7.43
2023-01-13T04:47:43.687Z,7.40
2023-01-13T04:50:12.926Z,7.48
2023-01-13T04:52:41.155Z,7.44
2023-01-13T04:55:11.517Z,7.41
2023-01-13T04:57:39.488Z,7.34
2023-01-13T05:00:10.368Z,7.33
2023-01-13T05:02:38.290Z,7.27
2023-01-13T05:05:07.361Z,7.17
2023-01-13T05:07:35.437Z,7.57
2023-01-13T05:10:03.422Z,7.38
2023-01-13T05:12:50.629Z,7.56
2023-01-13T05:15:36.100Z,7.40
2023-01-13T05:18:04.689Z,7.65
2023-01-13T05:20:32.634Z,7.38
2023-01-13T05:23:18.216Z,7.45
2023-01-13T05:25:49.056Z,7.27
2023-01-13T05:28:18.410Z,7.12
2023-01-13T05:30:49.310Z,7.13
2023-01-13T05:33:20.252Z,7.21
2023-01-13T05:35:48.879Z,7.24
2023-01-13T05:38:18.522Z,7.16
2023-01-13T05:41:04.379Z,7.23
2023-01-13T05:43:34.850Z,7.14
2023-01-13T05:46:05.118Z,7.26
2023-01-13T05:48:34.576Z,7.33
2023-01-13T05:51:03.387Z,7.28
2023-01-13T05:53:31.833Z,7.25
2023-01-13T05:56:00.250Z,7.04
2023-01-13T05:58:28.826Z,6.71
2023-01-13T06:01:02.515Z,6.69
2023-01-13T06:03:30.760Z,7.09
2023-01-13T06:06:03.790Z,7.07
2023-01-13T06:08:32.741Z,7.35
2023-01-13T06:11:03.728Z,7.60
2023-01-13T06:13:31.628Z,7.56
2023-01-13T06:16:01.277Z,7.60
2023-01-13T06:18:29.803Z,7.58
2023-01-13T06:20:58.297Z,7.81
2023-01-13T06:23:26.316Z,7.76
2023-01-13T06:26:01.293Z,7.85
2023-01-13T06:28:29.174Z,7.86
2023-01-13T06:30:59.958Z,7.91
2023-01-13T06:33:32.883Z,7.96
2023-01-13T06:36:04.275Z,7.67
2023-01-13T06:38:37.357Z,7.97
2023-01-13T06:41:08.197Z,7.97
2023-01-13T06:43:35.229Z,7.98
2023-01-13T06:46:03.483Z,7.99
2023-01-13T06:48:35.353Z,7.99
2023-01-13T06:51:04.475Z,7.92
2023-01-13T06:53:32.980Z,7.96
2023-01-13T06:56:00.901Z,7.85
2023-01-13T06:58:28.840Z,7.76
2023-01-13T07:01:01.412Z,7.87
2023-01-13T07:03:29.490Z,7.92
2023-01-13T07:05:58.884Z,7.83
2023-01-13T07:08:26.936Z,7.86
2023-01-13T07:10:55.214Z,7.87
2023-01-13T07:13:49.171Z,7.89
2023-01-13T07:16:17.105Z,7.83
2023-01-13T07:18:44.979Z,7.81
2023-01-13T07:21:18.684Z,7.86
2023-01-13T07:23:47.870Z,7.75
2023-01-13T07:26:16.562Z,7.75
2023-01-13T07:28:44.552Z,7.75
2023-01-13T07:31:17.135Z,7.81
2023-01-13T07:33:45.142Z,7.76
2023-01-13T07:36:15.581Z,7.71
2023-01-13T07:38:44.477Z,7.63
2023-01-13T07:41:30.893Z,7.72
2023-01-13T07:44:00.172Z,7.82
2023-01-13T07:46:28.141Z,7.62
2023-01-13T07:48:56.019Z,7.78
2023-01-13T07:51:25.284Z,7.84
2023-01-13T07:53:53.351Z,7.84
2023-01-13T07:56:21.420Z,7.89
2023-01-13T07:58:51.013Z,7.82
2023-01-13T08:01:20.346Z,7.82
2023-01-13T08:03:48.521Z,7.86
2023-01-13T08:06:16.775Z,7.86
2023-01-13T08:08:46.412Z,7.81
2023-01-13T08:11:14.385Z,7.83
2023-01-13T08:13:42.357Z,7.81
2023-01-13T08:16:12.451Z,7.86
2023-01-13T08:18:40.914Z,7.87
2023-01-13T08:21:10.840Z,7.78
2023-01-13T08:23:38.906Z,7.77
2023-01-13T08:26:10.327Z,7.87
2023-01-13T08:28:40.367Z,7.83
2023-01-13T08:31:11.584Z,7.88
2023-01-13T08:33:41.739Z,7.76
2023-01-13T08:36:12.228Z,7.97
2023-01-13T08:38:41.466Z,7.78
2023-01-13T08:41:37.624Z,7.98
2023-01-13T08:44:07.011Z,7.91
2023-01-13T08:46:35.038Z,7.79
2023-01-13T08:49:03.362Z,7.79
2023-01-13T08:51:31.346Z,7.86
2023-01-13T08:54:57.917Z,-143.13
2023-01-13T08:58:16.288Z,-143.13
2023-01-13T09:00:45.574Z,8.06
2023-01-13T09:03:13.603Z,8.08
2023-01-13T09:06:09.034Z,8.08
2023-01-13T09:08:38.150Z,8.10
2023-01-13T09:11:26.266Z,8.16
2023-01-13T09:13:55.148Z,8.29
2023-01-13T09:16:23.041Z,8.62
2023-01-13T09:18:50.940Z,8.79
2023-01-13T09:21:21.002Z,8.78
2023-01-13T09:23:49.372Z,8.58
2023-01-13T09:26:20.897Z,8.49
2023-01-13T09:28:49.210Z,8.44
2023-01-13T09:31:18.638Z,8.40
2023-01-13T09:34:04.037Z,8.30
2023-01-13T09:36:31.985Z,8.34
2023-01-13T09:38:59.946Z,8.32
2023-01-13T09:41:47.955Z,8.33
2023-01-13T09:44:21.134Z,8.39
2023-01-13T09:46:54.408Z,8.37
2023-01-13T09:49:26.653Z,8.41
2023-01-13T09:51:59.484Z,8.45
2023-01-13T09:54:33.141Z,8.47
2023-01-13T09:57:00.888Z,8.45
2023-01-13T09:59:36.333Z,8.48
2023-01-13T10:02:34.276Z,8.56
2023-01-13T10:05:06.550Z,8.59
2023-01-13T10:07:38.565Z,8.63
2023-01-13T10:10:16.876Z,8.56
2023-01-13T10:13:04.360Z,8.51
2023-01-13T10:15:32.266Z,8.51
2023-01-13T10:18:09.621Z,8.53
2023-01-13T10:20:50.667Z,8.52
2023-01-13T10:23:37.811Z,8.52
2023-01-13T10:26:17.840Z,8.47
2023-01-13T10:28:52.860Z,8.11
2023-01-13T10:31:23.370Z,8.48
2023-01-13T10:33:59.875Z,8.49
2023-01-13T10:36:29.377Z,8.32
2023-01-13T10:39:09.415Z,8.54
2023-01-13T10:41:37.469Z,8.51
2023-01-13T10:44:09.621Z,8.48
2023-01-13T10:46:52.929Z,8.48
2023-01-13T10:49:30.971Z,8.49
2023-01-13T10:51:59.160Z,8.47
2023-01-13T10:54:27.736Z,8.26
2023-01-13T10:57:14.454Z,8.53
2023-01-13T10:59:42.797Z,8.59
2023-01-13T11:02:26.541Z,8.64
2023-01-13T11:05:10.631Z,8.46
2023-01-13T11:07:41.488Z,8.63
2023-01-13T11:10:20.665Z,8.62
2023-01-13T11:12:58.537Z,8.55
2023-01-13T11:15:39.947Z,8.48
2023-01-13T11:18:18.125Z,8.49
2023-01-13T11:20:50.045Z,8.45
2023-01-13T11:23:25.349Z,8.52
2023-01-13T11:25:59.357Z,8.49
2023-01-13T11:29:07.748Z,8.49
2023-01-13T11:32:38.257Z,-143.13
2023-01-13T11:35:17.151Z,8.81
2023-01-13T11:37:50.828Z,8.81
2023-01-13T11:40:28.448Z,8.80
2023-01-13T11:43:04.733Z,8.80
2023-01-13T11:45:39.141Z,8.71
2023-01-13T11:48:10.047Z,8.68
2023-01-13T11:50:43.692Z,8.25
2023-01-13T11:53:28.529Z,8.61
2023-01-13T11:56:13.352Z,8.53
2023-01-13T11:59:01.719Z,8.51
2023-01-13T12:01:44.825Z,8.52
2023-01-13T12:04:27.334Z,8.46
2023-01-13T12:07:12.584Z,8.43
2023-01-13T12:09:57.294Z,8.46
2023-01-13T12:12:37.045Z,8.43
2023-01-13T12:15:35.707Z,8.46
2023-01-13T12:18:20.263Z,8.47
2023-01-13T12:21:01.345Z,8.47
2023-01-13T12:23:33.541Z,8.51
2023-01-13T12:26:09.047Z,8.55
2023-01-13T12:28:45.756Z,8.68
2023-01-13T12:31:15.245Z,8.66
2023-01-13T12:34:03.361Z,8.60
2023-01-13T12:36:41.821Z,8.49
2023-01-13T12:39:17.885Z,8.47
2023-01-13T12:42:10.043Z,8.41
2023-01-13T12:44:38.115Z,8.35
2023-01-13T12:47:26.075Z,8.32
2023-01-13T12:50:37.327Z,8.23
2023-01-13T12:53:36.220Z,8.33
2023-01-13T12:56:31.713Z,8.30
2023-01-13T12:59:51.314Z,8.36
2023-01-13T13:02:36.767Z,8.40
2023-01-13T13:05:41.861Z,8.49
2023-01-13T13:08:21.581Z,8.53
2023-01-13T13:11:03.015Z,8.49
2023-01-13T13:13:47.203Z,8.57
2023-01-13T13:17:01.009Z,8.46
2023-01-13T13:19:45.535Z,8.36
2023-01-13T13:22:43.198Z,8.16
2023-01-13T13:26:30.825Z,-143.13
2023-01-13T13:30:19.088Z,-143.13
2023-01-13T13:34:12.769Z,-143.13
2023-01-13T13:38:10.862Z,-143.13
2023-01-13T13:42:00.428Z,-143.13
2023-01-13T13:46:10.287Z,-143.13
2023-01-13T13:49:40.045Z,-143.13
2023-01-13T13:53:10.320Z,-143.13
2023-01-13T13:56:41.609Z,-143.13
2023-01-13T14:00:10.203Z,-143.13
2023-01-13T14:03:40.242Z,-143.13
2023-01-13T14:07:18.262Z,-143.13
2023-01-13T14:10:47.170Z,-143.13
2023-01-13T14:14:21.016Z,-143.13
2023-01-13T14:17:48.053Z,-143.13
2023-01-13T14:21:20.872Z,-143.13
2023-01-13T14:24:55.475Z,-143.13
2023-01-13T14:28:25.117Z,-143.13
2023-01-13T14:31:56.160Z,-143.13
2023-01-13T14:35:25.490Z,-143.13
2023-01-13T14:39:19.281Z,-143.13
2023-01-13T14:42:48.802Z,-143.13
2023-01-13T14:46:25.211Z,-143.13
2023-01-13T14:49:59.957Z,-143.13
2023-01-13T14:53:28.514Z,-143.13
2023-01-13T14:57:08.982Z,-143.13
2023-01-13T15:00:35.764Z,-143.13
2023-01-13T15:04:18.765Z,-143.13
2023-01-13T15:07:50.278Z,-143.13
2023-01-13T15:11:24.280Z,-143.13
2023-01-13T15:14:56.629Z,-143.13
2023-01-13T15:18:23.019Z,-143.13
2023-01-13T15:21:49.505Z,-143.13
2023-01-13T15:25:16.111Z,-143.13
2023-01-13T15:28:44.948Z,-143.13
2023-01-13T15:32:17.753Z,-143.13
2023-01-13T15:35:45.681Z,-143.13
2023-01-13T15:39:14.066Z,-143.13
2023-01-13T15:42:57.983Z,-143.13
2023-01-13T15:46:41.464Z,-143.13
2023-01-13T15:50:22.896Z,-143.13
2023-01-13T15:53:49.370Z,-143.13
2023-01-13T15:57:22.616Z,-143.13
2023-01-13T16:00:49.606Z,-143.13
2023-01-13T16:04:17.650Z,-143.13
2023-01-13T16:07:44.608Z,-143.13
2023-01-13T16:11:15.794Z,-143.13
2023-01-13T16:14:42.317Z,-143.13
2023-01-13T16:18:16.867Z,-143.13
2023-01-13T16:21:45.331Z,-143.13
2023-01-13T16:25:16.002Z,-143.13
2023-01-13T16:28:42.464Z,-143.13
2023-01-13T16:32:15.779Z,-143.13
2023-01-13T16:35:43.857Z,-143.13
2023-01-13T16:39:30.859Z,-143.13
2023-01-13T16:42:57.892Z,-143.13
2023-01-13T16:46:25.475Z,-143.13
2023-01-13T16:49:52.942Z,-143.13
2023-01-13T16:53:19.502Z,-143.13
2023-01-13T16:56:47.418Z,-143.13
2023-01-13T17:00:14.949Z,-143.13
2023-01-13T17:03:41.550Z,-143.13
2023-01-13T17:07:10.851Z,-143.13
2023-01-13T17:10:37.417Z,-143.13
2023-01-13T17:14:07.270Z,-143.13
2023-01-13T17:17:47.338Z,-143.13
2023-01-13T17:21:14.765Z,-143.13
2023-01-13T17:24:41.532Z,-143.13
2023-01-13T17:28:09.663Z,-143.13
2023-01-13T17:31:37.006Z,-143.13
2023-01-13T17:35:05.947Z,-143.13
2023-01-13T17:38:32.502Z,-143.13
2023-01-13T17:42:02.097Z,-143.13
2023-01-13T17:45:30.168Z,-143.13
2023-01-13T17:48:57.054Z,-143.13
2023-01-13T17:52:23.580Z,-143.13
2023-01-13T17:55:50.756Z,-143.13
2023-01-13T17:59:18.431Z,-143.13
2023-01-13T18:02:46.552Z,-143.13
2023-01-13T18:06:15.879Z,-143.13
2023-01-13T18:09:42.500Z,-143.13
2023-01-13T18:13:09.661Z,-143.13
2023-01-13T18:16:36.682Z,-143.13
2023-01-13T18:20:22.422Z,-143.13
2023-01-13T18:24:06.715Z,-143.13
2023-01-13T18:27:38.229Z,-143.13
2023-01-13T18:31:05.668Z,-143.13
2023-01-13T18:34:33.809Z,-143.13
2023-01-13T18:38:00.370Z,-143.13
2023-01-13T18:41:44.216Z,-143.13
2023-01-13T18:45:11.092Z,-143.13
2023-01-13T18:48:37.737Z,-143.13
2023-01-13T18:52:06.112Z,-143.13
2023-01-13T18:55:32.878Z,-143.13
2023-01-13T18:58:59.476Z,-143.13
2023-01-13T19:02:29.906Z,-143.13
2023-01-13T19:06:02.370Z,-143.13
2023-01-13T19:09:30.856Z,-143.13
2023-01-13T19:12:57.861Z,-143.13
2023-01-13T19:16:24.303Z,-143.13
2023-01-13T19:19:51.849Z,-143.13
2023-01-13T19:23:19.664Z,-143.13
2023-01-13T19:26:48.935Z,-143.13
2023-01-13T19:30:15.768Z,-143.13
2023-01-13T19:33:42.362Z,-143.13
2023-01-13T19:37:10.352Z,-143.13
2023-01-13T19:40:36.812Z,-143.13
2023-01-13T19:44:22.203Z,-143.13
2023-01-13T19:47:48.641Z,-143.13
2023-01-13T19:51:15.356Z,-143.13
2023-01-13T19:54:41.960Z,-143.13
2023-01-13T19:58:09.836Z,-143.13
2023-01-13T20:01:40.161Z,-143.13
2023-01-13T20:05:08.080Z,-143.13
2023-01-13T20:08:34.657Z,-143.13
2023-01-13T20:12:02.378Z,-143.13
2023-01-13T20:15:31.987Z,-143.13
2023-01-13T20:18:58.515Z,-143.13
2023-01-13T20:22:24.928Z,-143.13
2023-01-13T20:25:51.356Z,-143.13
2023-01-13T20:29:17.836Z,-143.13
2023-01-13T20:32:45.851Z,-143.13
2023-01-13T20:36:21.236Z,-143.13
2023-01-13T20:39:48.222Z,-143.13
2023-01-13T20:43:16.614Z,-143.13
2023-01-13T20:46:44.884Z,-143.13
2023-01-13T20:50:14.399Z,-143.13
2023-01-13T20:53:41.023Z,-143.13
2023-01-13T20:57:10.014Z,-143.13
2023-01-13T21:00:36.502Z,-143.13
2023-01-13T21:04:04.457Z,-143.13
2023-01-13T21:07:32.718Z,-143.13
2023-01-13T21:11:04.422Z,-143.13
2023-01-13T21:14:48.262Z,-143.13
2023-01-13T21:18:32.944Z,-143.13
2023-01-13T21:22:04.719Z,-143.13
2023-01-13T21:25:31.388Z,-143.13
2023-01-13T21:28:58.685Z,-143.13
2023-01-13T21:32:26.141Z,-143.13
2023-01-13T21:35:52.659Z,-143.13
2023-01-13T21:39:20.486Z,-143.13
2023-01-13T21:43:12.739Z,-143.13
2023-01-13T21:46:56.752Z,-143.13
2023-01-13T21:50:24.561Z,-143.13
2023-01-13T21:53:52.977Z,-143.13
2023-01-13T21:57:19.631Z,-143.13
2023-01-13T22:00:49.564Z,-143.13
2023-01-13T22:04:16.133Z,-143.13
2023-01-13T22:07:43.072Z,-143.13
2023-01-13T22:11:12.909Z,-143.13
2023-01-13T22:14:39.528Z,-143.13
2023-01-13T22:18:06.000Z,-143.13
2023-01-13T22:21:32.431Z,-143.13
2023-01-13T22:24:58.880Z,-143.13
2023-01-13T22:28:33.955Z,-143.13
2023-01-13T22:32:00.492Z,-143.13
2023-01-13T22:35:27.090Z,-143.13
2023-01-13T22:38:54.154Z,-143.13
2023-01-13T22:42:20.645Z,-143.13
2023-01-13T22:45:56.716Z,-143.13
2023-01-13T22:49:23.254Z,-143.13
2023-01-13T22:52:49.783Z,-143.13
2023-01-13T22:56:17.633Z,-143.13
2023-01-13T22:59:44.456Z,-143.13
2023-01-13T23:03:14.798Z,-143.13
2023-01-13T23:06:41.354Z,-143.13
2023-01-13T23:10:08.080Z,-143.13
2023-01-13T23:13:34.526Z,-143.13
2023-01-13T23:17:01.458Z,-143.13
2023-01-13T23:20:30.329Z,-143.13
2023-01-13T23:23:58.980Z,-143.13
2023-01-13T23:27:25.922Z,-143.13
2023-01-13T23:30:53.602Z,-143.13
2023-01-13T23:34:20.393Z,-143.13
2023-01-13T23:37:48.315Z,-143.13
2023-01-13T23:41:15.886Z,-143.13
2023-01-13T23:44:44.124Z,-143.13
2023-01-13T23:48:10.579Z,-143.13
2023-01-13T23:51:36.991Z,-143.13
2023-01-13T23:55:05.018Z,-143.13
2023-01-13T23:58:31.617Z,-143.13
